createdAt,value
2022-11-05T00:00:36.529Z,99865.56
2022-11-05T00:01:57.430Z,99864.38
2022-11-05T00:03:18.646Z,99857.50
2022-11-05T00:04:39.980Z,99871.84
2022-11-05T00:06:02.216Z,99862.34
2022-11-05T00:07:39.997Z,99855.06
2022-11-05T00:09:01.439Z,99865.69
2022-11-05T00:10:14.601Z,99853.34
2022-11-05T00:11:18.426Z,99854.41
2022-11-05T00:12:39.410Z,99855.63
2022-11-05T00:14:01.094Z,99852.22
2022-11-05T00:15:22.130Z,99852.22
2022-11-05T00:16:43.031Z,99847.59
2022-11-05T00:17:45.505Z,99848.31
2022-11-05T00:19:06.678Z,99848.38
2022-11-05T00:20:13.762Z,99837.66
2022-11-05T00:21:34.919Z,99845.25
2022-11-05T00:22:56.198Z,99847.38
2022-11-05T00:24:20.468Z,99847.00
2022-11-05T00:25:26.647Z,99847.00
2022-11-05T00:26:29.079Z,99845.50
2022-11-05T00:27:33.476Z,99846.75
2022-11-05T00:28:36.498Z,99847.91
2022-11-05T00:29:41.188Z,99857.31
2022-11-05T00:30:43.717Z,99852.03
2022-11-05T00:31:46.610Z,99845.59
2022-11-05T00:32:50.602Z,99847.03
2022-11-05T00:33:53.136Z,99847.47
2022-11-05T00:34:55.713Z,99851.31
2022-11-05T00:35:58.292Z,99845.19
2022-11-05T00:37:00.841Z,99843.97
2022-11-05T00:38:03.331Z,99846.28
2022-11-05T00:39:08.635Z,99847.03
2022-11-05T00:40:12.119Z,99847.91
2022-11-05T00:41:14.505Z,99843.66
2022-11-05T00:42:35.678Z,99839.06
2022-11-05T00:43:56.677Z,99839.06
2022-11-05T00:45:02.236Z,99838.69
2022-11-05T00:46:15.128Z,99833.41
2022-11-05T00:47:36.517Z,99832.19
2022-11-05T00:48:57.527Z,99829.16
2022-11-05T00:50:00.375Z,99831.72
2022-11-05T00:51:02.651Z,99836.00
2022-11-05T00:52:23.448Z,99836.59
2022-11-05T00:53:25.796Z,99834.63
2022-11-05T00:54:28.052Z,99841.00
2022-11-05T00:55:38.405Z,99831.88
2022-11-05T00:56:40.858Z,99834.81
2022-11-05T00:57:43.322Z,99835.28
2022-11-05T00:58:45.871Z,99831.88
2022-11-05T00:59:48.283Z,99829.94
2022-11-05T01:00:53.014Z,99840.44
2022-11-05T01:01:55.642Z,99830.63
2022-11-05T01:03:03.827Z,99832.59
2022-11-05T01:04:06.630Z,99833.84
2022-11-05T01:05:09.639Z,99829.81
2022-11-05T01:06:15.466Z,99826.59
2022-11-05T01:07:18.811Z,99832.75
2022-11-05T01:08:27.117Z,99832.38
2022-11-05T01:09:29.754Z,99827.03
2022-11-05T01:10:32.073Z,99831.97
2022-11-05T01:11:35.521Z,99834.94
2022-11-05T01:12:38.236Z,99835.38
2022-11-05T01:13:40.823Z,99835.03
2022-11-05T01:14:43.263Z,99838.03
2022-11-05T01:15:46.328Z,99833.84
2022-11-05T01:16:49.017Z,99837.75
2022-11-05T01:17:52.535Z,99829.75
2022-11-05T01:18:55.144Z,99831.53
2022-11-05T01:19:57.541Z,99827.47
2022-11-05T01:20:59.789Z,99828.50
2022-11-05T01:22:02.466Z,99822.38
2022-11-05T01:23:10.290Z,99822.44
2022-11-05T01:24:15.657Z,99822.38
2022-11-05T01:25:18.245Z,99827.94
2022-11-05T01:26:20.648Z,99828.19
2022-11-05T01:27:23.189Z,99816.16
2022-11-05T01:28:27.231Z,99828.53
2022-11-05T01:29:29.676Z,99826.69
2022-11-05T01:30:32.191Z,99809.34
2022-11-05T01:31:34.629Z,99808.19
2022-11-05T01:32:37.768Z,99811.22
2022-11-05T01:33:40.446Z,99812.41
2022-11-05T01:34:42.823Z,99815.75
2022-11-05T01:35:53.645Z,99822.41
2022-11-05T01:36:56.046Z,99822.50
2022-11-05T01:37:58.477Z,99821.88
2022-11-05T01:39:02.170Z,99823.75
2022-11-05T01:40:05.367Z,99816.16
2022-11-05T01:41:08.647Z,99819.16
2022-11-05T01:42:32.496Z,99820.66
2022-11-05T01:43:46.200Z,99822.97
2022-11-05T01:45:15.173Z,99816.16
2022-11-05T01:46:26.390Z,99819.59
2022-11-05T01:47:53.611Z,99819.59
2022-11-05T01:49:03.117Z,99816.16
2022-11-05T01:50:13.732Z,99817.69
2022-11-05T01:51:22.596Z,99803.59
2022-11-05T01:52:27.156Z,99808.19
2022-11-05T01:53:49.200Z,99800.00
2022-11-05T01:54:51.738Z,99802.69
2022-11-05T01:56:01.154Z,99797.97
2022-11-05T01:57:09.323Z,99804.63
2022-11-05T01:58:17.624Z,99806.28
2022-11-05T01:59:29.343Z,99801.38
2022-11-05T02:00:33.762Z,99796.56
2022-11-05T02:01:36.142Z,99803.47
2022-11-05T02:02:39.169Z,99807.19
2022-11-05T02:03:47.948Z,99805.31
2022-11-05T02:04:54.754Z,99803.38
2022-11-05T02:06:00.340Z,99803.31
2022-11-05T02:07:05.912Z,99805.84
2022-11-05T02:08:15.867Z,99810.75
2022-11-05T02:09:31.526Z,99814.78
2022-11-05T02:10:34.011Z,99818.47
2022-11-05T02:11:36.544Z,99812.84
2022-11-05T02:12:42.738Z,99818.81
2022-11-05T02:13:45.304Z,99822.66
2022-11-05T02:14:47.670Z,99817.03
2022-11-05T02:16:03.434Z,99816.66
2022-11-05T02:17:12.661Z,99820.34
2022-11-05T02:18:35.654Z,99820.06
2022-11-05T02:20:04.340Z,99823.81
2022-11-05T02:21:06.847Z,99831.13
2022-11-05T02:22:28.009Z,99826.44
2022-11-05T02:24:02.651Z,99832.59
2022-11-05T02:25:14.323Z,99837.53
2022-11-05T02:26:53.889Z,99836.63
2022-11-05T02:28:10.245Z,99845.72
2022-11-05T02:29:34.153Z,99842.75
2022-11-05T02:30:47.171Z,99826.13
2022-11-05T02:32:13.388Z,99849.38
2022-11-05T02:33:42.123Z,99839.31
2022-11-05T02:35:15.389Z,99850.59
2022-11-05T02:36:26.943Z,99843.34
2022-11-05T02:37:44.856Z,99837.13
2022-11-05T02:39:16.622Z,99821.44
2022-11-05T02:40:37.149Z,99828.53
2022-11-05T02:41:54.487Z,99813.38
2022-11-05T02:43:05.608Z,99816.38
2022-11-05T02:44:14.398Z,99806.22
2022-11-05T02:45:16.694Z,99807.84
2022-11-05T02:46:39.222Z,99807.00
2022-11-05T02:47:51.520Z,99804.63
2022-11-05T02:49:18.148Z,99794.06
2022-11-05T02:50:35.493Z,99797.72
2022-11-05T02:52:11.702Z,99788.78
2022-11-05T02:53:34.095Z,99794.81
2022-11-05T02:54:43.322Z,99791.84
2022-11-05T02:55:53.331Z,99800.03
2022-11-05T02:56:57.082Z,99796.00
2022-11-05T02:58:02.160Z,99794.81
2022-11-05T02:59:04.549Z,99794.41
2022-11-05T03:00:37.251Z,99801.72
2022-11-05T03:01:42.883Z,99800.63
2022-11-05T03:02:45.546Z,99803.25
2022-11-05T03:03:53.880Z,99795.34
2022-11-05T03:04:56.481Z,99798.97
2022-11-05T03:06:37.287Z,99804.25
2022-11-05T03:07:56.539Z,99801.28
2022-11-05T03:09:36.486Z,99801.09
2022-11-05T03:10:51.045Z,99801.00
2022-11-05T03:12:11.146Z,99797.88
2022-11-05T03:13:20.966Z,99798.75
2022-11-05T03:14:31.714Z,99796.56
2022-11-05T03:16:22.225Z,99803.25
2022-11-05T03:17:30.431Z,99802.47
2022-11-05T03:19:10.878Z,99805.44
2022-11-05T03:20:18.461Z,99803.75
2022-11-05T03:21:31.576Z,99799.22
2022-11-05T03:22:46.825Z,99801.38
2022-11-05T03:23:59.690Z,99792.00
2022-11-05T03:25:08.740Z,99793.50
2022-11-05T03:26:18.821Z,99789.72
2022-11-05T03:27:27.471Z,99790.53
2022-11-05T03:28:36.148Z,99793.47
2022-11-05T03:29:49.920Z,99799.66
2022-11-05T03:30:56.349Z,99798.91
2022-11-05T03:32:02.038Z,99798.88
2022-11-05T03:33:12.521Z,99800.00
2022-11-05T03:34:18.713Z,99800.81
2022-11-05T03:35:26.566Z,99800.00
2022-11-05T03:36:34.439Z,99795.94
2022-11-05T03:37:40.846Z,99800.91
2022-11-05T03:38:47.206Z,99809.59
2022-11-05T03:39:54.533Z,99798.41
2022-11-05T03:41:02.409Z,99811.88
2022-11-05T03:42:08.550Z,99804.22
2022-11-05T03:43:13.224Z,99808.13
2022-11-05T03:44:21.454Z,99809.81
2022-11-05T03:45:35.750Z,99809.09
2022-11-05T03:46:45.734Z,99810.06
2022-11-05T03:47:58.176Z,99812.13
2022-11-05T03:49:04.642Z,99812.41
2022-11-05T03:50:20.616Z,99812.41
2022-11-05T03:51:23.063Z,99814.97
2022-11-05T03:52:29.879Z,99810.22
2022-11-05T03:53:44.829Z,99809.34
2022-11-05T03:54:47.435Z,99804.06
2022-11-05T03:56:21.046Z,99800.41
2022-11-05T03:57:32.934Z,99804.94
2022-11-05T03:58:36.679Z,99814.50
2022-11-05T03:59:43.472Z,99807.28
2022-11-05T04:00:46.296Z,99818.19
2022-11-05T04:01:50.018Z,99820.34
2022-11-05T04:02:52.713Z,99815.50
2022-11-05T04:03:55.275Z,99822.06
2022-11-05T04:04:57.674Z,99828.47
2022-11-05T04:06:18.522Z,99822.13
2022-11-05T04:07:39.401Z,99838.34
2022-11-05T04:09:00.396Z,99831.97
2022-11-05T04:10:21.560Z,99841.75
2022-11-05T04:11:42.640Z,99857.59
2022-11-05T04:13:03.758Z,99872.75
2022-11-05T04:14:10.047Z,99882.97
2022-11-05T04:15:12.736Z,99888.34
2022-11-05T04:16:33.658Z,99888.72
2022-11-05T04:17:36.050Z,99882.69
2022-11-05T04:18:46.143Z,99874.28
2022-11-05T04:20:07.348Z,99876.91
2022-11-05T04:21:29.581Z,99884.78
2022-11-05T04:22:52.140Z,99875.22
2022-11-05T04:24:10.495Z,99875.22
2022-11-05T04:25:15.247Z,99874.09
2022-11-05T04:26:17.583Z,99868.06
2022-11-05T04:27:20.001Z,99867.16
2022-11-05T04:28:44.568Z,99861.44
2022-11-05T04:30:05.693Z,99867.16
2022-11-05T04:31:11.426Z,99870.13
2022-11-05T04:32:14.062Z,99869.00
2022-11-05T04:33:20.888Z,99868.34
2022-11-05T04:34:24.155Z,99873.97
2022-11-05T04:35:34.972Z,99875.81
2022-11-05T04:36:37.386Z,99876.19
2022-11-05T04:37:39.797Z,99870.06
2022-11-05T04:38:42.243Z,99873.88
2022-11-05T04:39:44.684Z,99874.47
2022-11-05T04:40:48.389Z,99876.78
2022-11-05T04:41:50.758Z,99870.81
2022-11-05T04:42:55.961Z,99879.47
2022-11-05T04:43:58.887Z,99876.00
2022-11-05T04:45:02.007Z,99877.25
2022-11-05T04:46:04.429Z,99871.56
2022-11-05T04:47:07.313Z,99879.31
2022-11-05T04:48:10.153Z,99884.22
2022-11-05T04:49:12.633Z,99886.84
2022-11-05T04:50:15.380Z,99887.00
2022-11-05T04:51:18.168Z,99878.38
2022-11-05T04:52:20.791Z,99878.75
2022-11-05T04:53:23.112Z,99887.22
2022-11-05T04:54:25.496Z,99886.84
2022-11-05T04:55:28.670Z,99888.00
2022-11-05T04:56:31.179Z,99894.16
2022-11-05T04:57:33.994Z,99894.91
2022-11-05T04:58:42.322Z,99896.06
2022-11-05T04:59:48.793Z,99891.84
2022-11-05T05:00:51.456Z,99891.56
2022-11-05T05:01:54.008Z,99891.84
2022-11-05T05:02:56.428Z,99897.47
2022-11-05T05:03:59.180Z,99895.59
2022-11-05T05:05:01.634Z,99900.56
2022-11-05T05:06:04.354Z,99901.31
2022-11-05T05:07:06.814Z,99902.75
2022-11-05T05:08:10.497Z,99897.91
2022-11-05T05:09:12.967Z,99897.22
2022-11-05T05:10:15.630Z,99902.50
2022-11-05T05:11:20.744Z,99893.38
2022-11-05T05:12:23.306Z,99904.72
2022-11-05T05:13:25.691Z,99900.97
2022-11-05T05:14:28.205Z,99905.88
2022-11-05T05:15:31.211Z,99901.47
2022-11-05T05:16:35.937Z,99901.81
2022-11-05T05:17:38.485Z,99905.66
2022-11-05T05:18:46.059Z,99905.22
2022-11-05T05:20:07.555Z,99903.66
2022-11-05T05:21:28.583Z,99906.75
2022-11-05T05:22:31.461Z,99902.84
2022-11-05T05:23:34.130Z,99904.28
2022-11-05T05:24:36.717Z,99908.53
2022-11-05T05:25:39.206Z,99908.53
2022-11-05T05:26:47.362Z,99907.78
2022-11-05T05:27:49.902Z,99911.91
2022-11-05T05:28:55.712Z,99907.78
2022-11-05T05:29:59.723Z,99910.75
2022-11-05T05:31:02.249Z,99901.75
2022-11-05T05:32:05.605Z,99906.16
2022-11-05T05:33:08.157Z,99910.31
2022-11-05T05:34:12.806Z,99903.53
2022-11-05T05:35:15.877Z,99904.63
2022-11-05T05:36:18.394Z,99907.28
2022-11-05T05:37:20.834Z,99911.44
2022-11-05T05:38:23.358Z,99902.84
2022-11-05T05:39:27.182Z,99913.63
2022-11-05T05:40:32.077Z,99912.19
2022-11-05T05:41:39.279Z,99910.75
2022-11-05T05:42:43.316Z,99910.66
2022-11-05T05:43:46.070Z,99907.69
2022-11-05T05:44:48.571Z,99912.63
2022-11-05T05:45:51.166Z,99906.91
2022-11-05T05:46:55.177Z,99906.91
2022-11-05T05:47:57.912Z,99906.16
2022-11-05T05:49:00.634Z,99911.44
2022-11-05T05:50:03.412Z,99917.47
2022-11-05T05:51:11.862Z,99914.94
2022-11-05T05:52:16.924Z,99917.19
2022-11-05T05:53:22.251Z,99926.34
2022-11-05T05:54:31.905Z,99922.47
2022-11-05T05:55:40.036Z,99922.66
2022-11-05T05:56:45.787Z,99929.13
2022-11-05T05:57:48.323Z,99930.56
2022-11-05T05:58:50.821Z,99934.00
2022-11-05T05:59:53.283Z,99934.34
2022-11-05T06:00:55.835Z,99932.88
2022-11-05T06:01:58.485Z,99934.84
2022-11-05T06:03:01.645Z,99932.03
2022-11-05T06:04:11.686Z,99937.38
2022-11-05T06:05:14.557Z,99935.94
2022-11-05T06:06:21.369Z,99940.75
2022-11-05T06:07:26.132Z,99938.50
2022-11-05T06:08:29.328Z,99941.13
2022-11-05T06:09:31.882Z,99943.03
2022-11-05T06:10:34.392Z,99947.19
2022-11-05T06:11:37.316Z,99941.66
2022-11-05T06:12:39.742Z,99948.31
2022-11-05T06:13:42.235Z,99947.63
2022-11-05T06:14:44.720Z,99948.41
2022-11-05T06:15:47.314Z,99946.50
2022-11-05T06:16:49.703Z,99942.00
2022-11-05T06:17:52.398Z,99946.63
2022-11-05T06:18:54.972Z,99955.03
2022-11-05T06:19:59.683Z,99950.84
2022-11-05T06:21:07.547Z,99957.25
2022-11-05T06:22:11.328Z,99950.84
2022-11-05T06:23:13.867Z,99954.28
2022-11-05T06:24:16.518Z,99959.88
2022-11-05T06:25:19.315Z,99959.38
2022-11-05T06:26:26.774Z,99964.00
2022-11-05T06:27:37.011Z,99962.84
2022-11-05T06:28:42.591Z,99966.78
2022-11-05T06:29:45.537Z,99965.84
2022-11-05T06:30:55.177Z,99964.72
2022-11-05T06:31:58.241Z,99971.97
2022-11-05T06:33:05.710Z,99971.56
2022-11-05T06:34:10.990Z,99966.69
2022-11-05T06:35:13.970Z,99970.72
2022-11-05T06:37:40.163Z,99970.13
2022-11-05T06:38:45.166Z,99969.00
2022-11-05T06:39:47.842Z,99970.72
2022-11-05T06:40:50.338Z,99966.44
2022-11-05T06:43:15.887Z,99962.63
2022-11-05T06:44:18.509Z,99971.56
2022-11-05T06:45:21.510Z,99963.88
2022-11-05T06:46:28.389Z,99969.16
2022-11-05T06:47:32.477Z,99963.72
2022-11-05T06:48:35.280Z,99966.44
2022-11-05T06:49:39.633Z,99963.78
2022-11-05T06:50:46.802Z,99967.31
2022-11-05T06:51:52.892Z,99966.19
2022-11-05T06:52:59.389Z,99970.78
2022-11-05T06:54:04.531Z,99967.75
2022-11-05T06:55:12.105Z,99968.50
2022-11-05T06:56:16.067Z,99971.47
2022-11-05T06:57:18.721Z,99968.75
2022-11-05T06:58:22.096Z,99972.50
2022-11-05T06:59:24.728Z,99969.84
2022-11-05T07:00:29.914Z,99976.59
2022-11-05T07:01:33.138Z,99971.66
2022-11-05T07:02:38.600Z,99977.16
2022-11-05T07:07:11.513Z,99971.97
2022-11-05T07:08:20.917Z,99967.16
2022-11-05T07:09:56.482Z,99966.53
2022-11-05T07:11:53.916Z,99960.03
2022-11-05T07:13:17.845Z,99967.97
2022-11-05T07:14:37.228Z,99966.44
2022-11-05T07:15:42.395Z,99964.66
2022-11-05T07:16:55.227Z,99968.41
2022-11-05T07:18:15.490Z,99964.84
2022-11-05T07:21:03.077Z,99968.69
2022-11-05T07:22:29.341Z,99967.91
2022-11-05T07:31:19.252Z,99975.88
2022-11-05T07:32:32.347Z,99977.50
2022-11-05T07:33:38.898Z,99977.91
2022-11-05T07:34:49.901Z,99975.25
2022-11-05T07:35:53.070Z,99984.06
2022-11-05T07:36:58.386Z,99980.63
2022-11-05T07:38:07.803Z,99988.47
2022-11-05T07:39:48.881Z,99982.25
2022-11-05T07:41:26.636Z,99982.25
2022-11-05T07:43:10.207Z,99989.66
2022-11-05T07:55:08.360Z,99977.03
2022-11-05T07:56:14.203Z,99981.06
2022-11-05T07:57:23.574Z,99977.66
2022-11-05T07:58:34.941Z,99983.97
2022-11-05T07:59:44.607Z,99979.59
2022-11-05T08:00:54.560Z,99974.69
2022-11-05T08:01:59.657Z,99988.13
2022-11-05T08:03:16.088Z,99974.59
2022-11-05T08:04:21.541Z,99979.88
2022-11-05T08:05:27.211Z,99981.69
2022-11-05T08:06:32.652Z,99983.28
2022-11-05T08:07:40.291Z,99981.25
2022-11-05T08:08:43.411Z,99985.06
2022-11-05T08:09:46.071Z,99987.34
2022-11-05T08:10:48.693Z,99982.53
2022-11-05T08:11:53.299Z,99979.19
2022-11-05T08:13:07.208Z,99976.13
2022-11-05T08:14:15.247Z,99972.53
2022-11-05T08:15:18.660Z,99970.41
2022-11-05T08:16:21.201Z,99960.94
2022-11-05T08:17:26.772Z,99968.59
2022-11-05T08:18:33.601Z,99968.00
2022-11-05T08:19:43.827Z,99974.13
2022-11-05T08:20:50.652Z,99970.47
2022-11-05T08:21:55.808Z,99972.84
2022-11-05T08:23:01.302Z,99975.56
2022-11-05T08:24:04.932Z,99973.75
2022-11-05T08:25:15.281Z,99975.47
2022-11-05T08:26:21.271Z,99976.72
2022-11-05T08:27:33.361Z,99976.06
2022-11-05T08:28:38.130Z,99980.16
2022-11-05T08:29:41.777Z,99985.16
2022-11-05T08:30:58.687Z,99978.69
2022-11-05T08:32:11.548Z,99988.22
2022-11-05T08:33:35.778Z,99984.38
2022-11-05T08:34:45.963Z,99983.53
2022-11-05T08:35:52.032Z,99982.16
2022-11-05T08:36:54.624Z,99982.34
2022-11-05T08:38:12.679Z,99986.63
2022-11-05T08:39:17.044Z,99990.31
2022-11-05T08:40:25.649Z,99996.31
2022-11-05T08:41:31.324Z,99986.97
2022-11-05T08:42:37.767Z,99986.13
2022-11-05T08:43:52.247Z,99987.09
2022-11-05T08:44:54.952Z,99990.22
2022-11-05T08:46:07.152Z,99996.38
2022-11-05T08:47:36.697Z,99994.78
2022-11-05T08:48:47.733Z,99992.63
2022-11-05T08:49:51.201Z,99991.34
2022-11-05T08:50:58.224Z,99992.13
2022-11-05T08:52:10.668Z,99989.41
2022-11-05T08:53:20.466Z,99989.31
2022-11-05T08:54:22.954Z,99992.13
2022-11-05T08:55:31.729Z,99993.59
2022-11-05T08:56:37.809Z,100000.81
2022-11-05T08:57:41.736Z,99996.63
2022-11-05T08:58:48.246Z,99996.03
2022-11-05T09:00:02.388Z,99993.03
2022-11-05T09:01:06.216Z,100003.00
2022-11-05T09:02:13.219Z,99999.81
2022-11-05T09:04:50.325Z,99999.13
2022-11-05T09:06:08.177Z,100008.00
2022-11-05T09:07:20.486Z,100009.75
2022-11-05T09:08:31.362Z,100013.78
2022-11-05T09:09:35.971Z,100007.38
2022-11-05T09:10:42.148Z,100006.38
2022-11-05T09:12:11.225Z,100004.09
2022-11-05T09:13:19.798Z,100005.38
2022-11-05T09:14:31.573Z,100001.81
2022-11-05T09:15:38.398Z,99999.56
2022-11-05T09:16:49.392Z,99997.78
2022-11-05T09:17:56.681Z,100000.72
2022-11-05T09:21:03.803Z,100004.19
2022-11-05T09:22:08.234Z,100007.59
2022-11-05T09:23:18.873Z,100004.84
2022-11-05T09:24:35.417Z,100005.22
2022-11-05T09:25:42.903Z,99999.94
2022-11-05T09:26:48.296Z,100007.00
2022-11-05T09:28:32.827Z,99999.44
2022-11-05T09:29:42.777Z,100004.31
2022-11-05T09:31:26.600Z,100001.72
2022-11-05T09:32:44.272Z,100000.28
2022-11-05T09:33:52.646Z,100007.13
2022-11-05T09:35:05.627Z,100002.91
2022-11-05T09:36:51.017Z,100000.84
2022-11-05T09:38:01.556Z,100006.13
2022-11-05T09:41:24.095Z,100007.03
2022-11-05T09:42:30.605Z,100006.66
2022-11-05T09:43:45.805Z,100005.06
2022-11-05T09:45:10.776Z,100005.94
2022-11-05T09:46:41.362Z,99997.09
2022-11-05T09:48:11.939Z,99990.81
2022-11-05T09:49:51.087Z,99994.72
2022-11-05T09:51:31.234Z,99992.09
2022-11-05T09:54:46.441Z,100000.03
2022-11-05T09:56:52.959Z,100005.56
2022-11-05T09:57:00.017Z,99992.09
2022-11-05T09:58:40.944Z,99996.03
2022-11-05T10:00:13.765Z,100002.59
2022-11-05T10:01:29.852Z,99996.13
2022-11-05T10:03:01.532Z,99999.69
2022-11-05T10:04:26.365Z,99995.97
2022-11-05T10:05:40.256Z,99999.38
2022-11-05T10:07:02.261Z,100003.59
2022-11-05T10:08:17.254Z,99999.81
2022-11-05T10:09:30.415Z,99997.75
2022-11-05T10:10:42.059Z,100005.22
2022-11-05T10:11:53.605Z,99997.31
2022-11-05T10:13:13.713Z,99999.63
2022-11-05T10:14:24.026Z,100004.91
2022-11-05T10:15:31.871Z,100001.53
2022-11-05T10:16:43.666Z,100001.53
2022-11-05T10:17:51.418Z,100005.34
2022-11-05T10:19:17.150Z,100011.31
2022-11-05T10:20:23.691Z,100003.31
2022-11-05T10:21:51.405Z,100006.78
2022-11-05T10:22:55.459Z,100011.78
2022-11-05T10:23:58.695Z,100017.81
2022-11-05T10:25:01.174Z,100012.22
2022-11-05T10:26:08.145Z,100009.91
2022-11-05T10:27:23.656Z,100011.97
2022-11-05T10:28:32.686Z,100014.63
2022-11-05T10:29:36.364Z,100016.50
2022-11-05T10:30:38.895Z,100016.78
2022-11-05T10:31:41.490Z,100018.41
2022-11-05T10:32:45.548Z,100010.13
2022-11-05T10:34:00.993Z,100019.63
2022-11-05T10:35:06.690Z,100014.25
2022-11-05T10:36:32.336Z,100021.94
2022-11-05T10:37:40.653Z,100015.50
2022-11-05T10:38:43.806Z,100016.78
2022-11-05T10:39:46.619Z,100019.16
2022-11-05T10:41:14.047Z,100012.31
2022-11-05T10:42:35.023Z,100021.53
2022-11-05T10:43:42.378Z,100021.72
2022-11-05T10:44:52.284Z,100019.97
2022-11-05T10:46:06.476Z,100026.00
2022-11-05T10:47:11.918Z,100031.19
2022-11-05T10:48:31.364Z,100025.13
2022-11-05T10:49:42.389Z,100034.94
2022-11-05T10:50:45.251Z,100027.66
2022-11-05T10:51:57.394Z,100027.66
2022-11-05T10:53:46.013Z,100022.38
2022-11-05T10:54:51.247Z,100026.84
2022-11-05T10:55:55.019Z,100041.19
2022-11-05T10:56:57.998Z,100032.22
2022-11-05T10:58:15.790Z,100043.53
2022-11-05T10:59:21.043Z,100036.44
2022-11-05T11:00:28.764Z,100034.16
2022-11-05T11:01:32.713Z,100034.59
2022-11-05T11:02:35.873Z,100042.00
2022-11-05T11:03:38.402Z,100043.38
2022-11-05T11:04:41.135Z,100039.28
2022-11-05T11:05:44.001Z,100046.41
2022-11-05T11:06:55.610Z,100040.13
2022-11-05T11:08:07.919Z,100048.75
2022-11-05T11:09:22.028Z,100046.75
2022-11-05T11:10:26.013Z,100045.22
2022-11-05T11:11:38.011Z,100056.94
2022-11-05T11:12:43.502Z,100052.88
2022-11-05T11:13:59.476Z,100059.91
2022-11-05T11:15:26.340Z,100059.13
2022-11-05T11:16:35.027Z,100053.84
2022-11-05T11:17:37.727Z,100058.28
2022-11-05T11:18:43.086Z,100061.06
2022-11-05T11:19:45.627Z,100060.28
2022-11-05T11:20:48.221Z,100056.78
2022-11-05T11:22:05.408Z,100061.78
2022-11-05T11:23:15.981Z,100067.00
2022-11-05T11:24:27.611Z,100067.19
2022-11-05T11:26:02.082Z,100065.19
2022-11-05T11:27:14.961Z,100062.09
2022-11-05T11:28:29.862Z,100061.81
2022-11-05T11:29:41.904Z,100068.31
2022-11-05T11:30:55.402Z,100064.72
2022-11-05T11:32:00.634Z,100060.16
2022-11-05T11:33:09.649Z,100062.09
2022-11-05T11:34:19.043Z,100054.47
2022-11-05T11:35:24.384Z,100062.66
2022-11-05T11:36:41.635Z,100060.91
2022-11-05T11:37:44.664Z,100054.16
2022-11-05T11:38:47.226Z,100060.66
2022-11-05T11:39:57.858Z,100066.78
2022-11-05T11:41:06.084Z,100063.78
2022-11-05T11:42:19.359Z,100058.50
2022-11-05T11:43:29.636Z,100061.88
2022-11-05T11:44:37.200Z,100061.13
2022-11-05T11:45:53.526Z,100063.94
2022-11-05T11:47:05.610Z,100063.72
2022-11-05T11:48:15.118Z,100054.34
2022-11-05T11:49:38.301Z,100062.56
2022-11-05T11:50:43.325Z,100054.59
2022-11-05T11:51:50.012Z,100063.97
2022-11-05T11:53:16.189Z,100063.94
2022-11-05T11:54:21.438Z,100066.16
2022-11-05T11:55:24.025Z,100065.81
2022-11-05T11:56:27.466Z,100059.81
2022-11-05T11:57:29.965Z,100065.66
2022-11-05T11:58:40.251Z,100063.03
2022-11-05T12:00:07.187Z,100059.69
2022-11-05T12:01:35.019Z,100067.94
2022-11-05T12:02:53.911Z,100063.19
2022-11-05T12:04:11.420Z,100065.81
2022-11-05T12:05:34.396Z,100067.00
2022-11-05T12:06:53.148Z,100078.81
2022-11-05T12:08:01.738Z,100078.97
2022-11-05T12:09:31.255Z,100072.84
2022-11-05T12:10:39.857Z,100078.56
2022-11-05T12:12:02.761Z,100083.06
2022-11-05T12:13:10.336Z,100082.03
2022-11-05T12:14:32.836Z,100078.25
2022-11-05T12:15:41.436Z,100074.09
2022-11-05T12:17:08.817Z,100074.50
2022-11-05T12:18:31.363Z,100069.38
2022-11-05T12:19:53.597Z,100074.66
2022-11-05T12:21:14.177Z,100075.16
2022-11-05T12:22:30.738Z,100073.28
2022-11-05T12:23:35.605Z,100074.19
2022-11-05T12:25:04.724Z,100079.78
2022-11-05T12:26:56.762Z,100071.78
2022-11-05T12:29:12.300Z,100069.13
2022-11-05T12:30:12.989Z,100084.44
2022-11-05T12:31:21.552Z,100079.63
2022-11-05T12:32:46.147Z,100077.00
2022-11-05T12:34:03.622Z,100077.66
2022-11-05T12:35:48.968Z,100078.75
2022-11-05T12:37:20.165Z,100084.53
2022-11-05T12:38:50.565Z,100085.63
2022-11-05T12:39:52.883Z,100077.06
2022-11-05T12:41:18.466Z,100075.47
2022-11-05T12:42:52.033Z,100077.63
2022-11-05T12:44:21.657Z,100076.72
2022-11-05T12:45:52.658Z,100078.56
2022-11-05T12:47:18.508Z,100077.69
2022-11-05T12:48:39.358Z,100077.06
2022-11-05T12:50:04.645Z,100080.09
2022-11-05T12:51:27.052Z,100071.66
2022-11-05T12:52:29.547Z,100079.72
2022-11-05T12:54:01.311Z,100078.59
2022-11-05T12:55:15.487Z,100086.06
2022-11-05T12:56:53.403Z,100080.69
2022-11-05T12:58:10.956Z,100088.78
2022-11-05T12:59:37.449Z,100088.38
2022-11-05T13:00:47.865Z,100093.25
2022-11-05T13:01:55.080Z,100089.78
2022-11-05T13:03:43.105Z,100100.41
2022-11-05T13:04:54.122Z,100098.81
2022-11-05T13:06:06.315Z,100099.59
2022-11-05T13:07:14.446Z,100097.88
2022-11-05T13:08:25.555Z,100103.53
2022-11-05T13:09:51.747Z,100097.09
2022-11-05T13:11:03.709Z,100102.63
2022-11-05T13:12:13.199Z,100097.59
2022-11-05T13:13:40.050Z,100105.69
2022-11-05T13:14:45.488Z,100108.97
2022-11-05T13:15:59.415Z,100110.09
2022-11-05T13:17:14.276Z,100108.16
2022-11-05T13:18:46.145Z,100118.19
2022-11-05T13:19:55.697Z,100116.16
2022-11-05T13:21:00.622Z,100110.88
2022-11-05T13:22:17.652Z,100104.75
2022-11-05T13:23:26.654Z,100108.50
2022-11-05T13:24:49.040Z,100106.75
2022-11-05T13:25:58.273Z,100110.25
2022-11-05T13:27:25.310Z,100109.91
2022-11-05T13:29:02.554Z,100108.84
2022-11-05T13:30:07.575Z,100113.00
2022-11-05T13:31:15.992Z,100110.03
2022-11-05T13:32:25.267Z,100116.94
2022-11-05T13:33:33.686Z,100110.38
2022-11-05T13:34:38.822Z,100108.09
2022-11-05T13:36:23.348Z,100117.97
2022-11-05T13:37:51.568Z,100127.94
2022-11-05T13:39:00.251Z,100129.00
2022-11-05T13:40:09.411Z,100124.47
2022-11-05T13:41:21.090Z,100124.09
2022-11-05T13:42:32.995Z,100129.38
2022-11-05T13:44:06.701Z,100133.03
2022-11-05T13:45:28.240Z,100141.31
2022-11-05T13:46:53.869Z,100137.63
2022-11-05T13:48:34.348Z,100129.00
2022-11-05T13:49:53.641Z,100129.88
2022-11-05T13:51:17.170Z,100142.34
2022-11-05T13:52:28.640Z,100138.56
2022-11-05T13:53:57.706Z,100143.03
2022-11-05T13:55:31.373Z,100130.50
2022-11-05T13:56:54.080Z,100135.09
2022-11-05T13:58:34.520Z,100140.06
2022-11-05T14:00:03.894Z,100136.56
2022-11-05T14:01:34.032Z,100136.09
2022-11-05T14:02:48.023Z,100140.53
2022-11-05T14:03:54.451Z,100133.44
2022-11-05T14:05:01.819Z,100135.03
2022-11-05T14:06:10.584Z,100137.63
2022-11-05T14:07:19.995Z,100144.03
2022-11-05T14:08:28.400Z,100139.06
2022-11-05T14:09:35.312Z,100147.00
2022-11-05T14:10:45.081Z,100142.47
2022-11-05T14:11:56.452Z,100142.41
2022-11-05T14:13:03.659Z,100145.84
2022-11-05T14:14:10.262Z,100145.06
2022-11-05T14:15:16.372Z,100145.72
2022-11-05T14:16:22.363Z,100153.25
2022-11-05T14:17:33.451Z,100143.38
2022-11-05T14:18:42.846Z,100147.91
2022-11-05T14:19:51.609Z,100146.38
2022-11-05T14:21:00.886Z,100149.78
2022-11-05T14:22:33.201Z,100144.53
2022-11-05T14:23:49.510Z,100146.38